createdAt,value
2022-08-07T00:02:35.609Z,98941.02
2022-08-07T00:04:15.416Z,98947.02
2022-08-07T00:06:51.776Z,98957.33
2022-08-07T00:09:22.831Z,98954.84
2022-08-07T00:11:55.877Z,98960.00
2022-08-07T00:14:30.972Z,98954.85
2022-08-07T00:17:00.110Z,98956.73
2022-08-07T00:19:56.048Z,98957.27
2022-08-07T00:22:34.474Z,98956.53
2022-08-07T00:25:07.436Z,98961.53
2022-08-07T00:27:53.346Z,98968.16
2022-08-07T00:30:27.258Z,98970.58
2022-08-07T00:32:57.699Z,98979.73
2022-08-07T00:35:26.505Z,98974.92
2022-08-07T00:37:53.950Z,98975.53
2022-08-07T00:40:36.575Z,98976.53
2022-08-07T00:43:09.715Z,98974.27
2022-08-07T00:45:41.585Z,98974.11
2022-08-07T00:48:14.100Z,98979.67
2022-08-07T00:50:51.384Z,98973.73
2022-08-07T00:53:20.633Z,98976.55
2022-08-07T00:56:02.313Z,98981.14
2022-08-07T00:58:32.732Z,98980.45
2022-08-07T01:01:00.115Z,98984.38
2022-08-07T01:03:56.980Z,98987.70
2022-08-07T01:06:15.918Z,98981.13
2022-08-07T01:08:52.968Z,98986.77
2022-08-07T01:12:24.005Z,98990.08
2022-08-07T01:14:09.457Z,98993.83
2022-08-07T01:16:37.176Z,98991.96
2022-08-07T01:19:10.932Z,98994.30
2022-08-07T01:21:49.704Z,98996.91
2022-08-07T01:24:22.285Z,98996.49
2022-08-07T01:26:52.083Z,98997.02
2022-08-07T01:29:27.810Z,98997.02
2022-08-07T01:31:59.689Z,98997.26
2022-08-07T01:34:32.945Z,98998.20
2022-08-07T01:37:09.761Z,99001.66
2022-08-07T01:39:46.450Z,99000.23
2022-08-07T01:42:39.906Z,99003.00
2022-08-07T01:45:22.776Z,99002.06
2022-08-07T01:48:20.040Z,99001.52
2022-08-07T01:50:51.063Z,99001.38
2022-08-07T01:54:09.065Z,99007.20
2022-08-07T01:56:15.273Z,99006.07
2022-08-07T01:58:49.491Z,99007.57
2022-08-07T02:01:25.388Z,99009.22
2022-08-07T02:04:11.024Z,99008.36
2022-08-07T02:06:40.634Z,99009.99
2022-08-07T02:09:11.669Z,99007.44
2022-08-07T02:12:02.942Z,99007.15
2022-08-07T02:14:41.064Z,99005.97
2022-08-07T02:17:16.556Z,99002.84
2022-08-07T02:20:06.577Z,99004.17
2022-08-07T02:22:41.075Z,99010.89
2022-08-07T02:25:13.970Z,99014.31
2022-08-07T02:27:52.258Z,99017.95
2022-08-07T02:30:21.145Z,99025.17
2022-08-07T02:33:07.282Z,99025.79
2022-08-07T02:36:29.723Z,99022.42
2022-08-07T02:38:31.771Z,99026.91
2022-08-07T02:41:01.417Z,99028.67
2022-08-07T02:43:32.496Z,99028.30
2022-08-07T02:46:02.126Z,99028.53
2022-08-07T02:48:31.195Z,99036.04
2022-08-07T02:51:00.289Z,99036.46
2022-08-07T02:53:38.522Z,99037.96
2022-08-07T02:56:13.139Z,99038.14
2022-08-07T02:58:48.401Z,99037.88
2022-08-07T03:01:19.168Z,99037.30
2022-08-07T03:04:03.408Z,99039.86
2022-08-07T03:06:35.414Z,99044.31
2022-08-07T03:09:07.789Z,99041.25
2022-08-07T03:11:51.522Z,99045.91
2022-08-07T03:14:22.548Z,99045.14
2022-08-07T03:16:50.537Z,99043.58
2022-08-07T03:19:20.449Z,99048.61
2022-08-07T03:21:50.740Z,99047.71
2022-08-07T03:24:25.977Z,99053.48
2022-08-07T03:26:59.598Z,99052.14
2022-08-07T03:29:36.786Z,99048.79
2022-08-07T03:32:08.510Z,99051.79
2022-08-07T03:34:47.503Z,99052.08
2022-08-07T03:38:07.476Z,99055.89
2022-08-07T03:40:38.640Z,99059.03
2022-08-07T03:43:14.763Z,99061.94
2022-08-07T03:45:48.999Z,99067.77
2022-08-07T03:48:22.082Z,99067.05
2022-08-07T03:50:56.302Z,99072.70
2022-08-07T03:54:33.079Z,99075.19
2022-08-07T03:56:32.712Z,99078.26
2022-08-07T03:59:08.385Z,99081.42
2022-08-07T04:01:45.164Z,99077.33
2022-08-07T04:04:17.255Z,99075.73
2022-08-07T04:06:50.949Z,99079.35
2022-08-07T04:09:23.241Z,99082.13
2022-08-07T04:12:25.414Z,99081.05
2022-08-07T04:14:43.815Z,99082.14
2022-08-07T04:17:20.761Z,99079.92
2022-08-07T04:20:10.218Z,99083.88
2022-08-07T04:22:40.150Z,99086.86
2022-08-07T04:25:23.554Z,99088.23
2022-08-07T04:27:59.137Z,99083.68
2022-08-07T04:30:35.581Z,99084.86
2022-08-07T04:33:16.557Z,99080.36
2022-08-07T04:35:54.001Z,99087.58
2022-08-07T04:38:24.881Z,99089.91
2022-08-07T04:40:56.778Z,99096.16
2022-08-07T04:44:10.285Z,99105.30
2022-08-07T04:47:04.221Z,99107.04
2022-08-07T04:49:57.425Z,99107.64
2022-08-07T04:52:58.792Z,99116.05
2022-08-07T04:58:07.975Z,99121.50
2022-08-07T04:58:34.830Z,99124.23
2022-08-07T05:01:30.767Z,99130.42
2022-08-07T05:04:18.261Z,99134.41
2022-08-07T05:06:59.168Z,99135.67
2022-08-07T05:09:46.767Z,99136.86
2022-08-07T05:12:27.228Z,99142.27
2022-08-07T05:15:26.467Z,99135.02
2022-08-07T05:18:21.636Z,99128.28
2022-08-07T05:20:54.681Z,99131.10
2022-08-07T05:23:30.017Z,99131.58
2022-08-07T05:26:13.470Z,99138.17
2022-08-07T05:28:50.379Z,99140.66
2022-08-07T05:31:20.232Z,99140.45
2022-08-07T05:34:01.181Z,99140.41
2022-08-07T05:36:35.428Z,99152.63
2022-08-07T05:40:05.034Z,99159.26
2022-08-07T05:42:02.686Z,99160.37
2022-08-07T05:44:36.596Z,99158.95
2022-08-07T05:47:18.616Z,99162.54
2022-08-07T05:50:03.358Z,99162.63
2022-08-07T05:52:32.892Z,99162.73
2022-08-07T05:55:10.352Z,99164.02
2022-08-07T05:57:42.312Z,99165.44
2022-08-07T06:00:16.121Z,99168.15
2022-08-07T06:02:51.772Z,99168.67
2022-08-07T06:05:28.171Z,99170.51
2022-08-07T06:08:29.589Z,99173.25
2022-08-07T06:10:51.248Z,99173.10
2022-08-07T06:14:12.114Z,99183.80
2022-08-07T06:16:10.057Z,99183.45
2022-08-07T06:18:38.573Z,99186.52
2022-08-07T06:22:15.070Z,99191.67
2022-08-07T06:24:52.316Z,99194.20
2022-08-07T06:26:43.575Z,99195.67
2022-08-07T06:29:11.717Z,99203.16
2022-08-07T06:31:49.621Z,99209.10
2022-08-07T06:34:20.536Z,99208.39
2022-08-07T06:36:52.021Z,99214.83
2022-08-07T06:40:15.858Z,99217.44
2022-08-07T06:42:19.214Z,99220.67
2022-08-07T06:45:05.696Z,99225.65
2022-08-07T06:47:48.414Z,99232.23
2022-08-07T06:50:27.938Z,99229.83
2022-08-07T06:52:58.305Z,99226.13
2022-08-07T06:56:00.032Z,99224.48
2022-08-07T06:58:17.380Z,99225.09
2022-08-07T07:00:56.265Z,99231.08
2022-08-07T07:03:39.603Z,99233.05
2022-08-07T07:06:14.731Z,99230.56
2022-08-07T07:08:53.657Z,99234.65
2022-08-07T07:12:08.693Z,99243.52
2022-08-07T07:14:09.831Z,99247.98
2022-08-07T07:16:50.080Z,99249.73
2022-08-07T07:19:57.069Z,99253.88
2022-08-07T07:22:32.196Z,99262.61
2022-08-07T07:25:02.871Z,99264.17
2022-08-07T07:28:07.644Z,99266.59
2022-08-07T07:31:05.077Z,99260.41
2022-08-07T07:33:35.704Z,99261.39
2022-08-07T07:36:13.287Z,99264.14
2022-08-07T07:38:43.521Z,99260.46
2022-08-07T07:41:13.434Z,99260.29
2022-08-07T07:44:13.828Z,99258.74
2022-08-07T07:46:49.981Z,99260.56
2022-08-07T07:50:34.814Z,99260.40
2022-08-07T07:52:12.370Z,99260.30
2022-08-07T07:54:50.650Z,99267.36
2022-08-07T07:57:43.719Z,99269.20
2022-08-07T08:00:12.040Z,99267.63
2022-08-07T08:03:05.188Z,99268.23
2022-08-07T08:05:50.931Z,99266.86
2022-08-07T08:08:34.395Z,99269.35
2022-08-07T08:11:05.549Z,99276.19
2022-08-07T08:13:54.521Z,99280.30
2022-08-07T08:16:32.925Z,99278.73
2022-08-07T08:19:17.550Z,99279.10
2022-08-07T08:22:09.851Z,99278.25
2022-08-07T08:25:15.903Z,99281.48
2022-08-07T08:27:56.968Z,99281.17
2022-08-07T08:30:29.140Z,99276.57
2022-08-07T08:32:58.430Z,99277.52
2022-08-07T08:35:28.919Z,99281.77
2022-08-07T08:38:06.819Z,99285.31
2022-08-07T08:40:43.840Z,99281.98
2022-08-07T08:43:21.217Z,99286.80
2022-08-07T08:46:08.842Z,99289.49
2022-08-07T08:48:41.029Z,99298.02
2022-08-07T08:52:01.046Z,99298.77
2022-08-07T08:54:29.619Z,99305.23
2022-08-07T08:56:58.388Z,99308.48
2022-08-07T08:59:50.735Z,99306.35
2022-08-07T09:02:39.552Z,99313.86
2022-08-07T09:05:37.487Z,99314.45
2022-08-07T09:08:46.872Z,99314.02
2022-08-07T09:11:24.972Z,99312.52
2022-08-07T09:14:40.862Z,99318.30
2022-08-07T09:17:59.011Z,99317.70
2022-08-07T09:20:30.762Z,99318.70
2022-08-07T09:24:31.520Z,99315.27
2022-08-07T09:26:13.764Z,99314.61
2022-08-07T09:30:05.875Z,99313.07
2022-08-07T09:31:50.130Z,99310.05
2022-08-07T09:34:31.515Z,99310.59
2022-08-07T09:37:14.536Z,99309.50
2022-08-07T09:39:53.669Z,99307.53
2022-08-07T09:42:50.393Z,99310.10
2022-08-07T09:47:24.425Z,99310.31
2022-08-07T09:49:59.547Z,99306.95
2022-08-07T09:52:15.631Z,99305.98
2022-08-07T09:54:54.697Z,99303.31
2022-08-07T09:57:46.797Z,99304.30
2022-08-07T10:00:15.817Z,99304.57
2022-08-07T10:02:55.106Z,99299.43
2022-08-07T10:05:58.890Z,99297.19
2022-08-07T10:08:58.476Z,99299.57
2022-08-07T10:12:03.396Z,99297.85
2022-08-07T10:14:39.466Z,99302.69
2022-08-07T10:18:02.558Z,99310.29
2022-08-07T10:20:53.482Z,99305.69
2022-08-07T10:24:04.906Z,99305.79
2022-08-07T10:26:41.698Z,99314.92
2022-08-07T10:29:23.943Z,99314.13
2022-08-07T10:31:57.831Z,99310.60
2022-08-07T10:34:54.348Z,99307.61
2022-08-07T10:38:21.177Z,99308.45
2022-08-07T10:40:45.036Z,99312.79
2022-08-07T10:43:19.522Z,99312.77
2022-08-07T10:46:07.492Z,99312.85
2022-08-07T10:48:48.504Z,99307.34
2022-08-07T10:51:39.654Z,99305.48
2022-08-07T10:54:53.134Z,99302.33
2022-08-07T10:57:34.371Z,99293.59
2022-08-07T11:00:36.236Z,99291.04
2022-08-07T11:03:00.660Z,99294.46
2022-08-07T11:05:50.573Z,99292.20
2022-08-07T11:08:39.000Z,99293.73
2022-08-07T11:11:22.439Z,99286.47
2022-08-07T11:14:43.663Z,99290.02
2022-08-07T11:16:54.798Z,99278.15
2022-08-07T11:19:45.336Z,99280.72
2022-08-07T11:22:37.023Z,99285.42
2022-08-07T11:25:36.287Z,99278.38
2022-08-07T11:28:29.114Z,99277.91
2022-08-07T11:31:13.273Z,99279.17
2022-08-07T11:34:24.554Z,99284.00
2022-08-07T11:37:15.296Z,99287.13
2022-08-07T11:40:00.609Z,99290.23
2022-08-07T11:42:57.999Z,99291.27
2022-08-07T11:45:50.182Z,99292.00
2022-08-07T11:49:28.617Z,99289.60
2022-08-07T11:52:09.625Z,99296.71
2022-08-07T11:54:54.517Z,99294.30
2022-08-07T11:58:00.293Z,99296.08
2022-08-07T12:00:28.441Z,99297.02
2022-08-07T12:03:45.341Z,99294.38
2022-08-07T12:06:51.796Z,99294.10
2022-08-07T12:09:29.195Z,99291.08
2022-08-07T12:12:11.669Z,99289.33
2022-08-07T12:15:00.571Z,99291.47
2022-08-07T12:17:38.032Z,99284.79
2022-08-07T12:20:20.805Z,99289.56
2022-08-07T12:24:05.940Z,99288.05
2022-08-07T12:26:49.154Z,99294.70
2022-08-07T12:29:51.510Z,99291.64
2022-08-07T12:32:21.235Z,99294.75
2022-08-07T12:34:55.801Z,99298.59
2022-08-07T12:37:28.336Z,99296.00
2022-08-07T12:40:30.016Z,99297.78
2022-08-07T12:43:02.929Z,99294.66
2022-08-07T12:45:39.984Z,99296.18
2022-08-07T12:48:27.644Z,99296.65
2022-08-07T12:51:12.903Z,99300.36
2022-08-07T12:54:36.505Z,99298.64
2022-08-07T12:57:09.797Z,99302.11
2022-08-07T12:59:54.444Z,99303.78
2022-08-07T13:02:47.173Z,99307.50
2022-08-07T13:06:17.074Z,99307.86
2022-08-07T13:08:54.308Z,99309.88
2022-08-07T13:12:03.252Z,99315.06
2022-08-07T13:15:11.315Z,99315.60
2022-08-07T13:17:52.699Z,99323.14
2022-08-07T13:20:51.116Z,99321.23
2022-08-07T13:24:01.163Z,99317.20
2022-08-07T13:26:46.552Z,99317.50
2022-08-07T13:29:16.887Z,99322.22
2022-08-07T13:32:31.900Z,99318.39
2022-08-07T13:35:09.234Z,99322.60
2022-08-07T13:37:58.621Z,99323.13
2022-08-07T13:40:42.802Z,99320.20
2022-08-07T13:43:15.049Z,99317.96
2022-08-07T13:46:11.831Z,99317.95
2022-08-07T13:48:33.895Z,99318.35
2022-08-07T13:51:21.221Z,99317.23
2022-08-07T13:54:00.579Z,99318.45
2022-08-07T13:56:35.297Z,99320.57
2022-08-07T13:59:13.014Z,99319.85
2022-08-07T14:02:08.254Z,99325.45
2022-08-07T14:04:54.361Z,99326.73
2022-08-07T14:07:24.517Z,99329.58
2022-08-07T14:10:02.489Z,99334.19
2022-08-07T14:12:58.300Z,99337.36
2022-08-07T14:15:40.699Z,99338.42
2022-08-07T14:18:30.920Z,99338.25
2022-08-07T14:22:01.809Z,99335.11
2022-08-07T14:24:28.093Z,99332.84
2022-08-07T14:27:00.223Z,99329.59
2022-08-07T14:30:07.854Z,99325.51
2022-08-07T14:32:21.871Z,99330.97
2022-08-07T14:34:52.730Z,99323.45
2022-08-07T14:37:36.484Z,99328.88
2022-08-07T14:40:17.343Z,99325.71
2022-08-07T14:45:54.671Z,99337.02
2022-08-07T14:48:27.382Z,99337.68
2022-08-07T14:51:00.910Z,99338.55
2022-08-07T14:54:06.596Z,99342.91
2022-08-07T14:56:29.797Z,99343.28
2022-08-07T14:59:13.861Z,99336.70
2022-08-07T15:01:53.821Z,99334.21
2022-08-07T15:04:29.044Z,99332.23
2022-08-07T15:06:56.817Z,99332.25
2022-08-07T15:12:42.164Z,99325.61
2022-08-07T15:13:03.530Z,99331.76
2022-08-07T15:18:02.707Z,99324.59
2022-08-07T15:20:55.291Z,99330.25
2022-08-07T15:25:15.979Z,99334.90
2022-08-07T15:26:22.610Z,99335.98
2022-08-07T15:30:03.561Z,99340.45
2022-08-07T15:31:57.679Z,99344.67
2022-08-07T15:37:14.067Z,99344.58
2022-08-07T15:39:58.321Z,99349.06
2022-08-07T15:42:43.541Z,99353.78
2022-08-07T15:45:58.108Z,99350.03
2022-08-07T15:51:10.058Z,99354.70
2022-08-07T15:53:52.317Z,99351.12
2022-08-07T15:56:38.007Z,99347.65
2022-08-07T15:59:16.322Z,99345.09
2022-08-07T16:02:01.938Z,99342.59
2022-08-07T16:04:32.104Z,99344.56
2022-08-07T16:07:00.724Z,99341.14
2022-08-07T16:09:42.080Z,99338.45
2022-08-07T16:12:28.616Z,99337.98
2022-08-07T16:15:55.386Z,99336.59
2022-08-07T16:18:49.930Z,99343.58
2022-08-07T16:22:02.425Z,99350.00
2022-08-07T16:24:35.634Z,99352.50
2022-08-07T16:27:18.097Z,99351.77
2022-08-07T16:30:31.084Z,99349.92
2022-08-07T16:34:01.954Z,99352.55
2022-08-07T16:36:31.455Z,99355.91
2022-08-07T16:39:49.489Z,99353.44
2022-08-07T16:42:55.220Z,99352.23
2022-08-07T16:46:40.691Z,99348.85
2022-08-07T16:49:10.607Z,99351.31
2022-08-07T16:51:54.111Z,99350.04
2022-08-07T16:54:22.817Z,99352.62
2022-08-07T16:57:15.967Z,99350.30
2022-08-07T17:00:15.061Z,99349.90
2022-08-07T17:02:52.351Z,99346.84
2022-08-07T17:06:02.088Z,99345.52
2022-08-07T17:09:04.184Z,99348.23
2022-08-07T17:12:04.498Z,99345.88
2022-08-07T17:14:54.417Z,99347.85
2022-08-07T17:17:47.629Z,99345.42
2022-08-07T17:20:33.256Z,99346.19
2022-08-07T17:23:17.304Z,99346.65
2022-08-07T17:26:23.233Z,99349.30
2022-08-07T17:29:04.668Z,99342.27
2022-08-07T17:31:33.571Z,99341.86
2022-08-07T17:34:36.754Z,99341.97
2022-08-07T17:38:05.853Z,99338.13
2022-08-07T17:40:30.158Z,99333.71
2022-08-07T17:43:03.362Z,99333.20
2022-08-07T17:46:11.528Z,99337.79
2022-08-07T17:49:23.046Z,99341.34
2022-08-07T17:52:19.465Z,99341.64
2022-08-07T17:54:54.349Z,99340.67
2022-08-07T17:57:56.319Z,99338.48
2022-08-07T18:00:33.003Z,99343.32
2022-08-07T18:04:03.838Z,99340.41
2022-08-07T18:06:43.523Z,99341.08
2022-08-07T18:09:16.421Z,99341.91
2022-08-07T18:12:19.885Z,99344.03
2022-08-07T18:15:02.349Z,99347.58
2022-08-07T18:18:44.715Z,99351.33
2022-08-07T18:21:10.230Z,99356.36
2022-08-07T18:23:46.725Z,99356.98
2022-08-07T18:26:23.881Z,99360.59
2022-08-07T18:29:03.319Z,99363.77
2022-08-07T18:31:49.805Z,99363.55
2022-08-07T18:34:53.279Z,99368.30
2022-08-07T18:38:57.072Z,99369.44
2022-08-07T18:41:16.596Z,99364.67
2022-08-07T18:43:50.818Z,99364.76
2022-08-07T18:46:29.236Z,99362.77
2022-08-07T18:50:30.304Z,99362.38
2022-08-07T18:52:33.816Z,99358.54
2022-08-07T18:55:40.242Z,99361.49
2022-08-07T18:57:58.730Z,99354.90
2022-08-07T19:01:09.477Z,99353.85
2022-08-07T19:04:09.372Z,99341.80
2022-08-07T19:06:51.369Z,99340.70
2022-08-07T19:09:56.258Z,99340.98
2022-08-07T19:12:26.449Z,99336.90
2022-08-07T19:16:05.025Z,99335.55
2022-08-07T19:18:45.048Z,99331.76
2022-08-07T19:21:47.574Z,99326.91
2022-08-07T19:24:30.868Z,99330.99
2022-08-07T19:28:29.453Z,99328.54
2022-08-07T19:30:57.906Z,99330.41
2022-08-07T19:32:46.053Z,99328.72
2022-08-07T19:35:19.084Z,99331.42
2022-08-07T19:37:57.503Z,99331.77
2022-08-07T19:40:31.600Z,99331.41
2022-08-07T19:43:21.547Z,99329.91
2022-08-07T19:46:04.733Z,99332.75
2022-08-07T19:48:42.967Z,99328.77
2022-08-07T19:51:20.493Z,99334.34
2022-08-07T19:54:33.817Z,99331.52
2022-08-07T19:57:59.654Z,99335.27
2022-08-07T19:59:40.508Z,99338.58
2022-08-07T20:02:19.840Z,99341.77
2022-08-07T20:04:50.082Z,99342.81
2022-08-07T20:07:23.888Z,99344.70
2022-08-07T20:10:38.387Z,99345.92
2022-08-07T20:12:46.409Z,99351.20
2022-08-07T20:15:22.030Z,99357.20
2022-08-07T20:18:01.295Z,99358.46
2022-08-07T20:20:32.537Z,99358.13
2022-08-07T20:23:10.888Z,99356.21
2022-08-07T20:25:53.168Z,99355.27
2022-08-07T20:28:20.828Z,99355.74
2022-08-07T20:30:57.181Z,99359.91
2022-08-07T20:33:38.005Z,99358.24
2022-08-07T20:36:06.853Z,99366.73
2022-08-07T20:38:34.815Z,99373.06
2022-08-07T20:41:03.902Z,99371.87
2022-08-07T20:43:33.819Z,99375.02
2022-08-07T20:46:26.517Z,99375.96
2022-08-07T20:49:54.677Z,99373.36
2022-08-07T20:51:40.586Z,99378.65
2022-08-07T20:54:29.296Z,99382.95
2022-08-07T20:57:04.018Z,99380.45
2022-08-07T21:00:08.144Z,99381.30
2022-08-07T21:02:54.467Z,99380.81
2022-08-07T21:05:54.441Z,99392.33
2022-08-07T21:08:38.332Z,99396.70
2022-08-07T21:11:10.521Z,99395.77
2022-08-07T21:13:58.009Z,99395.80
2022-08-07T21:16:46.787Z,99394.23
2022-08-07T21:19:32.153Z,99396.17
2022-08-07T21:22:19.250Z,99397.39
2022-08-07T21:25:12.066Z,99395.14
2022-08-07T21:27:46.865Z,99394.10
2022-08-07T21:30:16.631Z,99396.17
2022-08-07T21:32:54.532Z,99400.14
2022-08-07T21:36:03.857Z,99400.78
2022-08-07T21:38:44.564Z,99400.46
2022-08-07T21:41:19.369Z,99401.31
2022-08-07T21:43:56.532Z,99400.38
2022-08-07T21:46:49.199Z,99401.02
2022-08-07T21:49:25.632Z,99402.25
2022-08-07T21:52:11.651Z,99397.46
2022-08-07T21:55:01.951Z,99403.77
2022-08-07T21:57:52.108Z,99405.55
2022-08-07T22:00:25.123Z,99402.08
2022-08-07T22:03:30.678Z,99408.66
2022-08-07T22:06:36.741Z,99412.29
2022-08-07T22:09:13.519Z,99414.17
2022-08-07T22:11:52.930Z,99413.69
2022-08-07T22:14:23.866Z,99409.49
2022-08-07T22:17:02.307Z,99409.11
2022-08-07T22:19:37.554Z,99409.13
2022-08-07T22:22:28.901Z,99411.73
2022-08-07T22:25:08.720Z,99409.48
2022-08-07T22:28:07.831Z,99405.50
2022-08-07T22:30:54.725Z,99409.15
2022-08-07T22:33:52.584Z,99407.96
2022-08-07T22:36:42.405Z,99405.71
2022-08-07T22:39:30.331Z,99402.54
2022-08-07T22:42:29.543Z,99404.16
2022-08-07T22:45:04.016Z,99402.48
2022-08-07T22:48:01.596Z,99399.08
2022-08-07T22:50:53.732Z,99399.94
2022-08-07T22:54:07.354Z,99395.65
2022-08-07T22:57:15.081Z,99397.20
2022-08-07T22:59:59.836Z,99397.36
2022-08-07T23:02:50.111Z,99399.06
2022-08-07T23:06:09.556Z,99394.40
2022-08-07T23:10:05.191Z,99391.53
2022-08-07T23:11:59.576Z,99394.45
2022-08-07T23:14:36.796Z,99395.52
2022-08-07T23:17:20.108Z,99392.29
2022-08-07T23:20:51.710Z,99390.94
2022-08-07T23:24:05.357Z,99395.39
2022-08-07T23:26:23.450Z,99398.02
2022-08-07T23:28:56.764Z,99400.38
2022-08-07T23:34:24.135Z,99400.29
2022-08-07T23:35:16.676Z,99401.98
2022-08-07T23:38:01.517Z,99400.41
2022-08-07T23:40:55.096Z,99401.27
2022-08-07T23:43:42.623Z,99396.19
2022-08-07T23:46:30.041Z,99396.59
2022-08-07T23:49:15.799Z,99396.05
2022-08-07T23:53:00.394Z,99392.58
2022-08-07T23:54:51.985Z,99396.17
2022-08-07T23:57:28.900Z,99398.13
